createdAt,value
2024-01-12T00:00:48.454Z,102786.97
2024-01-12T00:03:16.391Z,102793.88
2024-01-12T00:05:46.423Z,102793.53
2024-01-12T00:08:14.510Z,102796.78
2024-01-12T00:10:42.438Z,102790.53
2024-01-12T00:13:11.871Z,102794.63
2024-01-12T00:15:39.822Z,102788.22
2024-01-12T00:18:07.756Z,102784.34
2024-01-12T00:20:37.669Z,102791.91
2024-01-12T00:23:05.848Z,102799.84
2024-01-12T00:25:33.930Z,102807.38
2024-01-12T00:28:01.748Z,102802.75
2024-01-12T00:30:31.011Z,102801.78
2024-01-12T00:32:58.984Z,102807.38
2024-01-12T00:35:26.976Z,102810.53
2024-01-12T00:37:54.962Z,102803.63
2024-01-12T00:40:22.821Z,102804.06
2024-01-12T00:42:51.444Z,102801.66
2024-01-12T00:45:19.468Z,102805.09
2024-01-12T00:47:48.979Z,102807.75
2024-01-12T00:50:17.080Z,102806.31
2024-01-12T00:52:45.040Z,102816.09
2024-01-12T00:55:14.298Z,102809.47
2024-01-12T00:57:42.187Z,102799.78
2024-01-12T01:00:10.898Z,102813.22
2024-01-12T01:02:38.851Z,102800.34
2024-01-12T01:05:09.268Z,102806.25
2024-01-12T01:07:37.136Z,102804.91
2024-01-12T01:10:05.424Z,102808.03
2024-01-12T01:12:33.361Z,102798.84
2024-01-12T01:15:01.404Z,102808.53
2024-01-12T01:17:29.432Z,102813.25
2024-01-12T01:19:57.477Z,102809.56
2024-01-12T01:22:26.875Z,102815.16
2024-01-12T01:24:54.731Z,102807.84
2024-01-12T01:27:22.658Z,102811.44
2024-01-12T01:29:50.595Z,102804.25
2024-01-12T01:32:18.924Z,102799.09
2024-01-12T01:34:47.535Z,102804.84
2024-01-12T01:37:15.569Z,102794.03
2024-01-12T01:39:44.829Z,102781.00
2024-01-12T01:42:12.690Z,102781.09
2024-01-12T01:44:40.574Z,102776.59
2024-01-12T01:47:09.157Z,102780.22
2024-01-12T01:49:37.394Z,102786.19
2024-01-12T01:52:06.182Z,102794.66
2024-01-12T01:54:35.159Z,102792.78
2024-01-12T01:57:06.446Z,102790.06
2024-01-12T01:59:36.467Z,102786.31
2024-01-12T02:02:06.331Z,102776.78
2024-01-12T02:04:34.302Z,102777.00
2024-01-12T02:07:03.695Z,102775.00
2024-01-12T02:09:32.837Z,102779.19
2024-01-12T02:12:00.794Z,102781.91
2024-01-12T02:14:30.094Z,102781.25
2024-01-12T02:16:58.130Z,102780.81
2024-01-12T02:19:26.001Z,102779.91
2024-01-12T02:21:55.404Z,102776.63
2024-01-12T02:24:23.287Z,102787.59
2024-01-12T02:26:51.268Z,102779.50
2024-01-12T02:29:20.094Z,102791.25
2024-01-12T02:31:50.168Z,102798.75
2024-01-12T02:34:18.497Z,102788.63
2024-01-12T02:36:46.341Z,102797.13
2024-01-12T02:39:16.093Z,102790.59
2024-01-12T02:41:44.047Z,102788.22
2024-01-12T02:44:11.952Z,102796.75
2024-01-12T02:46:40.135Z,102801.56
2024-01-12T02:49:09.365Z,102794.84
2024-01-12T02:51:37.280Z,102789.22
2024-01-12T02:54:05.691Z,102795.19
2024-01-12T02:56:35.090Z,102799.69
2024-01-12T02:59:03.020Z,102798.47
2024-01-12T03:01:30.956Z,102801.88
2024-01-12T03:03:58.884Z,102795.84
2024-01-12T03:06:27.007Z,102796.53
2024-01-12T03:08:55.046Z,102790.75
2024-01-12T03:11:23.024Z,102788.28
2024-01-12T03:13:52.460Z,102788.97
2024-01-12T03:16:21.916Z,102779.84
2024-01-12T03:18:51.108Z,102783.94
2024-01-12T03:21:19.940Z,102796.25
2024-01-12T03:23:49.226Z,102795.13
2024-01-12T03:26:17.409Z,102797.94
2024-01-12T03:28:45.367Z,102789.59
2024-01-12T03:31:16.248Z,102789.34
2024-01-12T03:33:45.813Z,102773.34
2024-01-12T03:36:15.170Z,102767.44
2024-01-12T03:38:43.089Z,102767.81
2024-01-12T03:41:11.652Z,102765.97
2024-01-12T03:43:39.589Z,102749.47
2024-01-12T03:46:07.497Z,102733.88
2024-01-12T03:48:37.250Z,102733.78
2024-01-12T03:51:06.981Z,102721.44
2024-01-12T03:53:34.978Z,102724.50
2024-01-12T03:56:02.880Z,102722.13
2024-01-12T03:58:31.618Z,102716.50
2024-01-12T04:00:59.536Z,102719.91
2024-01-12T04:03:27.594Z,102739.28
2024-01-12T04:05:56.917Z,102739.06
2024-01-12T04:08:24.911Z,102727.28
2024-01-12T04:10:52.961Z,102715.44
2024-01-12T04:13:20.823Z,102711.19
2024-01-12T04:15:48.922Z,102724.44
2024-01-12T04:18:16.952Z,102720.09
2024-01-12T04:20:45.010Z,102727.06
2024-01-12T04:23:14.549Z,102724.97
2024-01-12T04:25:42.438Z,102732.63
2024-01-12T04:28:10.336Z,102720.06
2024-01-12T04:30:38.243Z,102725.16
2024-01-12T04:33:06.583Z,102728.38
2024-01-12T04:35:34.560Z,102716.22
2024-01-12T04:38:02.509Z,102717.34
2024-01-12T04:40:31.779Z,102727.03
2024-01-12T04:42:59.694Z,102720.31
2024-01-12T04:45:27.578Z,102711.38
2024-01-12T04:47:55.513Z,102715.00
2024-01-12T04:50:23.657Z,102705.28
2024-01-12T04:52:53.242Z,102711.97
2024-01-12T04:55:21.133Z,102715.25
2024-01-12T04:57:50.659Z,102717.75
2024-01-12T05:00:20.057Z,102715.50
2024-01-12T05:02:48.279Z,102715.53
2024-01-12T05:05:16.445Z,102725.34
2024-01-12T05:07:44.431Z,102711.22
2024-01-12T05:10:12.369Z,102722.69
2024-01-12T05:12:40.304Z,102730.81
2024-01-12T05:15:10.590Z,102732.50
2024-01-12T05:17:39.031Z,102727.50
2024-01-12T05:20:08.884Z,102726.22
2024-01-12T05:22:37.535Z,102719.13
2024-01-12T05:25:05.985Z,102726.97
2024-01-12T05:27:33.986Z,102732.78
2024-01-12T05:30:04.057Z,102730.97
2024-01-12T05:32:34.390Z,102729.66
2024-01-12T05:35:02.671Z,102722.63
2024-01-12T05:37:30.594Z,102727.94
2024-01-12T05:39:58.547Z,102715.94
2024-01-12T05:42:26.529Z,102718.25
2024-01-12T05:44:54.488Z,102716.31
2024-01-12T05:47:22.435Z,102721.44
2024-01-12T05:49:51.935Z,102718.56
2024-01-12T05:52:19.970Z,102731.22
2024-01-12T05:54:47.869Z,102719.66
2024-01-12T05:57:14.787Z,102728.06
2024-01-12T05:59:43.603Z,102738.88
2024-01-12T06:02:14.843Z,102745.75
2024-01-12T06:04:43.142Z,102737.00
2024-01-12T06:07:12.438Z,102738.91
2024-01-12T06:09:40.404Z,102733.38
2024-01-12T06:12:10.911Z,102720.25
2024-01-12T06:14:38.884Z,102727.81
2024-01-12T06:17:06.966Z,102736.66
2024-01-12T06:19:35.004Z,102726.63
2024-01-12T06:22:02.971Z,102737.47
2024-01-12T06:24:32.259Z,102732.84
2024-01-12T06:27:02.916Z,102737.03
2024-01-12T06:29:32.823Z,102752.19
2024-01-12T06:32:00.799Z,102754.63
2024-01-12T06:34:28.705Z,102762.25
2024-01-12T06:36:57.818Z,102747.19
2024-01-12T06:39:25.867Z,102736.88
2024-01-12T06:41:55.228Z,102750.75
2024-01-12T06:44:23.248Z,102753.84
2024-01-12T06:46:51.284Z,102759.84
2024-01-12T06:49:19.245Z,102763.66
2024-01-12T06:51:47.837Z,102756.22
2024-01-12T06:54:17.501Z,102744.22
2024-01-12T06:56:46.670Z,102741.94
2024-01-12T06:59:16.007Z,102741.22
2024-01-12T07:01:43.903Z,102742.25
2024-01-12T07:04:11.948Z,102739.75
2024-01-12T07:06:40.344Z,102737.81
2024-01-12T07:09:13.023Z,102735.38
2024-01-12T07:11:43.470Z,102740.88
2024-01-12T07:14:11.760Z,102729.22
2024-01-12T07:16:41.035Z,102730.53
2024-01-12T07:19:09.541Z,102722.03
2024-01-12T07:21:37.752Z,102717.94
2024-01-12T07:24:06.227Z,102716.97
2024-01-12T07:26:34.337Z,102719.38
2024-01-12T07:29:02.398Z,102715.25
2024-01-12T07:31:31.282Z,102716.31
2024-01-12T07:34:00.696Z,102703.75
2024-01-12T07:36:28.856Z,102703.28
2024-01-12T07:38:58.199Z,102701.63
2024-01-12T07:41:28.011Z,102701.75
2024-01-12T07:43:56.215Z,102704.41
2024-01-12T07:46:24.582Z,102710.81
2024-01-12T07:48:53.466Z,102712.47
2024-01-12T07:51:22.885Z,102704.22
2024-01-12T07:53:50.933Z,102692.78
2024-01-12T07:56:18.931Z,102693.31
2024-01-12T07:58:47.168Z,102688.19
2024-01-12T08:01:15.361Z,102686.34
2024-01-12T08:03:43.531Z,102679.09
2024-01-12T08:06:11.930Z,102670.63
2024-01-12T08:08:41.309Z,102669.44
2024-01-12T08:11:23.121Z,102667.56
2024-01-12T08:13:55.994Z,102674.22
2024-01-12T08:16:23.858Z,102669.84
2024-01-12T08:18:51.752Z,102671.69
2024-01-12T08:21:19.679Z,102669.50
2024-01-12T08:23:49.027Z,102659.50
2024-01-12T08:26:17.051Z,102655.38
2024-01-12T08:28:44.986Z,102663.97
2024-01-12T08:31:13.490Z,102672.31
2024-01-12T08:33:43.469Z,102674.13
2024-01-12T08:36:11.497Z,102672.22
2024-01-12T08:38:39.587Z,102677.19
2024-01-12T08:41:08.866Z,102681.22
2024-01-12T08:43:38.082Z,102680.81
2024-01-12T08:46:09.741Z,102686.03
2024-01-12T08:48:38.100Z,102682.38
2024-01-12T08:51:08.609Z,102678.22
2024-01-12T08:53:38.405Z,102684.38
2024-01-12T08:56:08.975Z,102682.78
2024-01-12T08:58:39.199Z,102671.19
2024-01-12T09:01:08.430Z,102672.44
2024-01-12T09:03:36.452Z,102677.16
2024-01-12T09:06:04.777Z,102677.78
2024-01-12T09:08:32.774Z,102677.31
2024-01-12T09:11:02.106Z,102676.59
2024-01-12T09:13:29.975Z,102672.84
2024-01-12T09:15:59.287Z,102676.69
2024-01-12T09:18:27.410Z,102682.47
2024-01-12T09:20:55.482Z,102681.19
2024-01-12T09:23:23.480Z,102674.06
2024-01-12T09:25:55.336Z,102682.56
2024-01-12T09:28:23.529Z,102674.53
2024-01-12T09:30:51.670Z,102684.19
2024-01-12T09:33:21.237Z,102674.13
2024-01-12T09:35:49.349Z,102665.97
2024-01-12T09:38:17.353Z,102673.22
2024-01-12T09:40:46.568Z,102672.78
2024-01-12T09:43:15.942Z,102675.41
2024-01-12T09:45:46.360Z,102670.69
2024-01-12T09:48:15.037Z,102658.84
2024-01-12T09:50:45.874Z,102666.75
2024-01-12T09:53:13.851Z,102657.75
2024-01-12T09:55:41.819Z,102657.09
2024-01-12T09:58:12.181Z,102649.53
2024-01-12T10:00:42.624Z,102654.34
2024-01-12T10:03:12.589Z,102643.84
2024-01-12T10:05:42.608Z,102647.59
2024-01-12T10:08:12.325Z,102650.09
2024-01-12T10:10:41.376Z,102635.34
2024-01-12T10:13:09.306Z,102633.94
2024-01-12T10:15:42.047Z,102636.75
2024-01-12T10:18:10.024Z,102642.81
2024-01-12T10:20:38.774Z,102640.91
2024-01-12T10:23:06.935Z,102641.66
2024-01-12T10:25:37.186Z,102639.19
2024-01-12T10:28:05.395Z,102634.31
2024-01-12T10:30:33.075Z,102639.97
2024-01-12T10:33:02.309Z,102632.03
2024-01-12T10:35:30.288Z,102634.88
2024-01-12T10:38:00.630Z,102633.59
2024-01-12T10:40:28.571Z,102631.75
2024-01-12T10:42:58.986Z,102640.50
2024-01-12T10:45:27.922Z,102631.00
2024-01-12T10:48:02.837Z,102631.00
2024-01-12T10:50:35.126Z,102630.41
2024-01-12T10:53:16.555Z,102639.50
2024-01-12T10:55:55.140Z,102640.78
2024-01-12T10:58:25.439Z,102628.94
2024-01-12T11:00:54.457Z,102637.94
2024-01-12T11:03:23.453Z,102644.56
2024-01-12T11:05:52.834Z,102633.78
2024-01-12T11:08:22.871Z,102618.31
2024-01-12T11:10:53.894Z,102615.72
2024-01-12T11:13:22.893Z,102605.25
2024-01-12T11:15:53.880Z,102606.31
2024-01-12T11:18:21.984Z,102602.06
2024-01-12T11:20:50.090Z,102600.09
2024-01-12T11:23:18.984Z,102606.22
2024-01-12T11:25:46.970Z,102602.53
2024-01-12T11:28:16.645Z,102604.03
2024-01-12T11:30:44.630Z,102619.44
2024-01-12T11:33:18.990Z,102606.38
2024-01-12T11:35:52.614Z,102609.16
2024-01-12T11:38:20.924Z,102602.94
2024-01-12T11:40:50.729Z,102601.91
2024-01-12T11:43:18.923Z,102594.16
2024-01-12T11:45:47.421Z,102592.34
2024-01-12T11:48:17.260Z,102586.19
2024-01-12T11:50:45.469Z,102582.66
2024-01-12T11:53:14.568Z,102578.69
2024-01-12T11:55:42.730Z,102586.22
2024-01-12T11:58:10.659Z,102576.34
2024-01-12T12:00:37.573Z,102570.16
2024-01-12T12:03:05.945Z,102575.31
2024-01-12T12:05:35.705Z,102571.34
2024-01-12T12:08:05.155Z,102569.13
2024-01-12T12:10:40.957Z,102577.66
2024-01-12T12:13:13.850Z,102576.81
2024-01-12T12:15:41.727Z,102569.91
2024-01-12T12:18:09.928Z,102564.63
2024-01-12T12:20:39.451Z,102567.28
2024-01-12T12:23:08.595Z,102561.66
2024-01-12T12:25:36.722Z,102562.81
2024-01-12T12:28:04.989Z,102553.16
2024-01-12T12:30:33.120Z,102549.88
2024-01-12T12:33:01.832Z,102533.56
2024-01-12T12:35:30.012Z,102524.16
2024-01-12T12:38:02.989Z,102529.78
2024-01-12T12:40:31.440Z,102528.31
2024-01-12T12:43:00.101Z,102518.53
2024-01-12T12:45:28.647Z,102514.31
2024-01-12T12:47:56.855Z,102512.09
2024-01-12T12:50:25.625Z,102494.53
2024-01-12T12:52:53.780Z,102489.66
2024-01-12T12:55:23.278Z,102488.25
2024-01-12T12:57:52.195Z,102476.69
2024-01-12T13:00:20.457Z,102480.16
2024-01-12T13:02:49.124Z,102467.09
2024-01-12T13:05:19.031Z,102462.88
2024-01-12T13:07:47.067Z,102462.53
2024-01-12T13:10:15.196Z,102456.00
2024-01-12T13:12:44.532Z,102459.84
2024-01-12T13:15:13.106Z,102469.03
2024-01-12T13:17:42.010Z,102470.66
2024-01-12T13:20:10.984Z,102467.84
2024-01-12T13:22:38.948Z,102464.56
2024-01-12T13:25:07.917Z,102467.69
2024-01-12T13:27:38.247Z,102462.53
2024-01-12T13:30:10.727Z,102465.97
2024-01-12T13:32:39.188Z,102468.41
2024-01-12T13:35:08.745Z,102461.25
2024-01-12T13:37:36.728Z,102456.94
2024-01-12T13:40:05.241Z,102455.56
2024-01-12T13:42:33.162Z,102472.72
2024-01-12T13:45:02.227Z,102474.94
2024-01-12T13:47:32.576Z,102479.91
2024-01-12T13:50:00.718Z,102457.69
2024-01-12T13:52:28.711Z,102459.25
2024-01-12T13:54:56.590Z,102446.03
2024-01-12T13:57:24.490Z,102448.06
2024-01-12T13:59:52.415Z,102442.53
2024-01-12T14:02:20.609Z,102439.94
2024-01-12T14:05:00.843Z,102438.38
2024-01-12T14:07:38.552Z,102458.88
2024-01-12T14:10:07.417Z,102454.31
2024-01-12T14:12:36.075Z,102440.00
2024-01-12T14:15:04.331Z,102448.38
2024-01-12T14:17:32.476Z,102446.41
2024-01-12T14:20:02.326Z,102437.34
2024-01-12T14:22:30.389Z,102417.13
2024-01-12T14:24:58.307Z,102441.56
2024-01-12T14:27:26.436Z,102437.00
2024-01-12T14:29:56.005Z,102437.84
2024-01-12T14:32:24.488Z,102422.84
2024-01-12T14:34:52.688Z,102407.19
2024-01-12T14:37:23.558Z,102400.91
2024-01-12T14:39:52.044Z,102402.44
2024-01-12T14:42:19.969Z,102395.91
2024-01-12T14:44:48.468Z,102393.66
2024-01-12T14:47:16.376Z,102403.59
2024-01-12T14:49:44.340Z,102386.53
2024-01-12T14:52:13.190Z,102395.25
2024-01-12T14:54:45.471Z,102382.47
2024-01-12T14:57:13.388Z,102382.47
2024-01-12T14:59:41.852Z,102373.44
2024-01-12T15:02:10.192Z,102365.84
2024-01-12T15:04:38.264Z,102361.38
2024-01-12T15:07:08.819Z,102365.25
2024-01-12T15:09:36.947Z,102372.94
2024-01-12T15:12:07.704Z,102390.41
2024-01-12T15:14:36.456Z,102393.59
2024-01-12T15:17:04.714Z,102391.28
2024-01-12T15:19:32.706Z,102405.19
2024-01-12T15:22:00.860Z,102406.44
2024-01-12T15:24:28.784Z,102413.41
2024-01-12T15:26:56.914Z,102412.41
2024-01-12T15:29:26.226Z,102407.97
2024-01-12T15:31:54.129Z,102407.31
2024-01-12T15:34:22.223Z,102409.75
2024-01-12T15:36:50.241Z,102411.31
2024-01-12T15:39:18.112Z,102420.88
2024-01-12T15:41:46.102Z,102412.03
2024-01-12T15:44:14.165Z,102424.72
2024-01-12T15:46:43.385Z,102429.59
2024-01-12T15:49:12.735Z,102429.75
2024-01-12T15:51:42.028Z,102436.50
2024-01-12T15:54:10.038Z,102444.50
2024-01-12T15:56:38.339Z,102455.22
2024-01-12T15:59:06.665Z,102451.63
2024-01-12T16:01:34.520Z,102439.78
2024-01-12T16:04:03.854Z,102434.28
2024-01-12T16:06:32.370Z,102430.00
2024-01-12T16:09:00.414Z,102423.06
2024-01-12T16:11:28.887Z,102418.47
2024-01-12T16:13:56.865Z,102407.88
2024-01-12T16:16:24.769Z,102389.38
2024-01-12T16:19:00.166Z,102382.91
2024-01-12T16:21:37.481Z,102386.53
2024-01-12T16:24:05.758Z,102364.53
2024-01-12T16:26:38.621Z,102372.56
2024-01-12T16:29:06.704Z,102354.63
2024-01-12T16:31:34.573Z,102355.44
2024-01-12T16:34:02.677Z,102353.13
2024-01-12T16:36:30.712Z,102338.94
2024-01-12T16:39:00.039Z,102338.53
2024-01-12T16:41:27.958Z,102328.03
2024-01-12T16:43:55.858Z,102340.69
2024-01-12T16:46:23.770Z,102333.31
2024-01-12T16:48:51.904Z,102333.34
2024-01-12T16:51:19.976Z,102325.19
2024-01-12T16:53:47.914Z,102331.03
2024-01-12T16:56:17.226Z,102334.72
2024-01-12T16:58:45.118Z,102327.28
2024-01-12T17:01:13.050Z,102313.81
2024-01-12T17:03:41.025Z,102324.19
2024-01-12T17:06:09.283Z,102315.03
2024-01-12T17:08:37.324Z,102306.13
2024-01-12T17:11:07.991Z,102304.75
2024-01-12T17:13:37.282Z,102299.38
2024-01-12T17:16:05.766Z,102294.63
2024-01-12T17:18:33.860Z,102283.22
2024-01-12T17:21:02.077Z,102283.22
2024-01-12T17:23:30.243Z,102282.06
2024-01-12T17:25:58.258Z,102288.19
2024-01-12T17:28:26.395Z,102292.44
2024-01-12T17:30:55.829Z,102306.91
2024-01-12T17:33:23.967Z,102295.16
2024-01-12T17:35:52.102Z,102289.63
2024-01-12T17:38:20.126Z,102288.88
2024-01-12T17:40:47.994Z,102286.63
2024-01-12T17:43:15.871Z,102282.25
2024-01-12T17:45:43.774Z,102267.03
2024-01-12T17:48:13.193Z,102276.03
2024-01-12T17:50:41.639Z,102274.03
2024-01-12T17:53:09.545Z,102265.16
2024-01-12T17:55:37.436Z,102257.25
2024-01-12T17:58:05.594Z,102249.03
2024-01-12T18:00:33.455Z,102248.97
2024-01-12T18:03:01.412Z,102240.97
2024-01-12T18:05:32.701Z,102237.94
2024-01-12T18:08:00.698Z,102233.97
2024-01-12T18:10:28.797Z,102243.28
2024-01-12T18:12:56.663Z,102236.84
2024-01-12T18:15:24.539Z,102230.41
2024-01-12T18:17:52.492Z,102238.72
2024-01-12T18:20:21.723Z,102218.56
2024-01-12T18:22:50.978Z,102224.94
2024-01-12T18:25:18.913Z,102220.22
2024-01-12T18:27:46.797Z,102222.91
2024-01-12T18:30:15.176Z,102220.16
2024-01-12T18:32:43.323Z,102229.03
2024-01-12T18:35:11.360Z,102226.03
2024-01-12T18:37:40.742Z,102222.34
2024-01-12T18:40:10.991Z,102225.34
2024-01-12T18:42:38.844Z,102225.78
2024-01-12T18:45:07.927Z,102229.50
2024-01-12T18:47:36.003Z,102226.81
2024-01-12T18:50:04.184Z,102226.69
2024-01-12T18:52:32.055Z,102229.97
2024-01-12T18:54:59.950Z,102209.63
2024-01-12T18:57:29.384Z,102212.47
2024-01-12T18:59:57.338Z,102205.16
2024-01-12T19:02:25.328Z,102200.81
2024-01-12T19:04:53.245Z,102205.06
2024-01-12T19:07:21.072Z,102205.66
2024-01-12T19:09:49.092Z,102206.00
2024-01-12T19:12:17.040Z,102215.59
2024-01-12T19:14:46.571Z,102211.47
2024-01-12T19:17:14.639Z,102207.72
2024-01-12T19:19:42.678Z,102215.50
2024-01-12T19:22:10.611Z,102220.00
2024-01-12T19:24:42.633Z,102214.84
2024-01-12T19:27:10.601Z,102216.53
2024-01-12T19:32:11.589Z,102215.28
2024-01-12T19:34:41.577Z,102201.88
2024-01-12T19:37:09.956Z,102197.06
2024-01-12T19:39:37.888Z,102197.94
2024-01-12T19:42:06.364Z,102178.91
2024-01-12T19:44:34.734Z,102178.34
2024-01-12T19:47:02.630Z,102175.44
2024-01-12T19:49:31.977Z,102176.66
2024-01-12T19:51:59.958Z,102170.25
2024-01-12T19:54:27.839Z,102167.28
2024-01-12T19:56:55.768Z,102163.41
2024-01-12T19:59:23.684Z,102164.53
2024-01-12T20:01:51.871Z,102155.94
2024-01-12T20:04:26.464Z,102161.88
2024-01-12T20:07:02.662Z,102179.31
2024-01-12T20:09:30.842Z,102172.16
2024-01-12T20:11:58.747Z,102163.72
2024-01-12T20:14:26.731Z,102160.25
2024-01-12T20:16:54.909Z,102180.78
2024-01-12T20:19:23.061Z,102170.75
2024-01-12T20:21:51.260Z,102175.81
2024-01-12T20:24:20.879Z,102171.47
2024-01-12T20:26:49.158Z,102172.22
2024-01-12T20:29:17.058Z,102163.63
2024-01-12T20:31:45.876Z,102175.94
2024-01-12T20:34:14.002Z,102179.31
2024-01-12T20:36:41.968Z,102171.03
2024-01-12T20:39:10.198Z,102149.56
2024-01-12T20:41:39.548Z,102151.34
2024-01-12T20:44:07.596Z,102148.63
2024-01-12T20:46:35.668Z,102156.81
2024-01-12T20:49:03.678Z,102156.00
2024-01-12T20:51:31.806Z,102145.59
2024-01-12T20:53:59.770Z,102138.47
2024-01-12T20:56:27.690Z,102131.81
2024-01-12T20:58:56.939Z,102119.06
2024-01-12T21:01:25.121Z,102130.69
2024-01-12T21:03:53.243Z,102138.13
2024-01-12T21:06:21.418Z,102137.00
2024-01-12T21:08:49.445Z,102134.59
2024-01-12T21:11:17.354Z,102125.25
2024-01-12T21:13:45.217Z,102136.91
2024-01-12T21:16:15.132Z,102134.00
2024-01-12T21:18:43.203Z,102131.44
2024-01-12T21:21:12.752Z,102122.66
2024-01-12T21:23:40.779Z,102107.00
2024-01-12T21:26:08.732Z,102106.34
2024-01-12T21:28:36.616Z,102102.03
2024-01-12T21:31:04.873Z,102093.69
2024-01-12T21:33:34.338Z,102083.81
2024-01-12T21:36:02.460Z,102085.09
2024-01-12T21:38:30.375Z,102080.03
2024-01-12T21:40:58.383Z,102083.13
2024-01-12T21:43:26.313Z,102071.19
2024-01-12T21:45:54.367Z,102080.88
2024-01-12T21:48:22.345Z,102080.88
2024-01-12T21:50:51.707Z,102081.59
2024-01-12T21:53:19.617Z,102089.72
2024-01-12T21:55:47.510Z,102085.41
2024-01-12T21:58:15.408Z,102079.47
2024-01-12T22:00:43.293Z,102073.31
2024-01-12T22:03:11.411Z,102070.38
2024-01-12T22:05:39.414Z,102074.84
2024-01-12T22:08:08.791Z,102073.84
2024-01-12T22:10:36.698Z,102074.22
2024-01-12T22:13:04.713Z,102069.09
2024-01-12T22:15:32.576Z,102065.44
2024-01-12T22:18:00.686Z,102068.00
2024-01-12T22:20:28.728Z,102061.41
2024-01-12T22:22:56.623Z,102060.69
2024-01-12T22:25:25.865Z,102058.53
2024-01-12T22:27:53.792Z,102058.41
2024-01-12T22:30:21.983Z,102051.81
2024-01-12T22:32:50.050Z,102052.47
2024-01-12T22:35:18.063Z,102046.78
2024-01-12T22:37:46.373Z,102040.31
2024-01-12T22:40:14.369Z,102049.59
2024-01-12T22:42:43.650Z,102054.69
2024-01-12T22:45:12.101Z,102052.34
2024-01-12T22:47:41.423Z,102047.22
2024-01-12T22:50:10.054Z,102036.34
2024-01-12T22:52:38.941Z,102039.13
2024-01-12T22:55:08.044Z,102028.28
2024-01-12T22:57:35.936Z,102028.38
2024-01-12T23:00:25.262Z,102030.31
2024-01-12T23:02:53.864Z,102033.94
2024-01-12T23:05:22.357Z,102029.78
2024-01-12T23:07:50.261Z,102023.78
2024-01-12T23:10:18.517Z,102011.91
2024-01-12T23:12:46.484Z,102018.56
2024-01-12T23:15:15.803Z,102011.34
2024-01-12T23:17:44.562Z,102013.16
2024-01-12T23:20:15.472Z,102017.88
2024-01-12T23:22:45.438Z,102021.91
2024-01-12T23:25:12.687Z,102020.50
2024-01-12T23:27:41.718Z,102023.03
2024-01-12T23:30:10.315Z,102009.88
2024-01-12T23:32:39.996Z,102001.97
2024-01-12T23:35:09.383Z,102002.34
2024-01-12T23:37:37.369Z,102004.09
2024-01-12T23:40:05.776Z,102001.78
2024-01-12T23:42:33.673Z,101996.19
2024-01-12T23:45:01.625Z,101995.59
2024-01-12T23:47:29.704Z,101993.78
2024-01-12T23:49:59.071Z,101996.53
2024-01-12T23:52:27.084Z,101993.00
2024-01-12T23:54:54.960Z,101982.19
2024-01-12T23:57:22.920Z,101981.66
2024-01-12T23:59:50.852Z,101979.41
